Time;durP1;ratioP1;P1;durP2;ratioP2;P2;SDS_P1;SDS_P2;PMS_P1;PMS_P2;Temp;Humidity;BMP_temperature;BMP_pressure;BME280_temperature;BME280_humidity;BME280_pressure;Samples;Min_cycle;Max_cycle;Signal;HPM_P1;HPM_P2
2022/01/11 00:00:57;;;;;;;44.70;24.00;;;1.70;99.90;;;;;;5113198;28;20491;-66
2022/01/11 00:03:23;;;;;;;34.10;23.67;;;1.70;99.90;;;;;;5113350;28;20031;-66
2022/01/11 00:08:18;;;;;;;38.63;23.52;;;1.70;99.90;;;;;;5112499;28;20046;-66
2022/01/11 00:10:53;;;;;;;35.40;24.17;;;1.70;99.90;;;;;;5113761;28;20040;-64
2022/01/11 00:13:20;;;;;;;34.08;24.15;;;1.60;99.90;;;;;;5113295;28;20039;-66
2022/01/11 00:15:47;;;;;;;41.42;24.23;;;1.70;99.90;;;;;;5114386;28;20031;-66
2022/01/11 00:18:14;;;;;;;28.80;21.10;;;1.60;99.90;;;;;;5117135;28;20036;-64
2022/01/11 00:20:40;;;;;;;36.47;24.00;;;1.60;99.90;;;;;;5117253;28;20047;-64
2022/01/11 00:25:38;;;;;;;37.83;22.90;;;1.60;99.90;;;;;;5116587;28;20097;-64
2022/01/11 00:28:06;;;;;;;30.02;22.33;;;1.60;99.90;;;;;;5116878;28;20438;-64
2022/01/11 00:30:34;;;;;;;31.27;22.42;;;1.50;99.90;;;;;;5117300;28;20524;-64
2022/01/11 00:33:03;;;;;;;72.50;23.40;;;1.60;99.90;;;;;;5117067;28;20074;-64
2022/01/11 00:35:40;;;;;;;30.92;21.58;;;1.50;99.90;;;;;;5115396;28;20043;-64
2022/01/11 00:38:07;;;;;;;46.05;22.60;;;1.50;99.90;;;;;;5116628;28;20032;-64
2022/01/11 00:40:33;;;;;;;32.35;21.63;;;1.40;99.90;;;;;;5116747;28;20039;-64
2022/01/11 00:42:59;;;;;;;27.35;20.83;;;1.50;99.90;;;;;;5117077;28;20031;-64
2022/01/11 00:45:26;;;;;;;50.35;22.10;;;1.40;99.90;;;;;;5115288;28;20054;-64
2022/01/11 00:47:53;;;;;;;44.47;21.95;;;1.40;99.90;;;;;;5115266;28;20078;-64
2022/01/11 00:50:18;;;;;;;29.02;20.33;;;1.40;99.90;;;;;;5115817;28;20167;-64
2022/01/11 00:52:44;;;;;;;32.95;21.55;;;1.40;99.90;;;;;;5116604;27;20514;-64
2022/01/11 00:55:10;;;;;;;28.75;20.45;;;1.30;99.90;;;;;;5116258;28;20043;-64
2022/01/11 00:57:36;;;;;;;35.45;22.05;;;1.40;99.90;;;;;;5115888;28;20047;-64
2022/01/11 01:00:08;;;;;;;62.65;24.08;;;1.40;99.90;;;;;;5116068;28;20043;-64
2022/01/11 01:02:34;;;;;;;67.78;26.48;;;1.30;99.90;;;;;;5116621;28;20044;-64
2022/01/11 01:04:59;;;;;;;32.65;22.50;;;1.20;99.90;;;;;;5116529;28;20032;-64
2022/01/11 01:07:25;;;;;;;37.75;21.92;;;1.10;99.90;;;;;;5114785;28;20035;-64
2022/01/11 01:10:01;;;;;;;45.60;23.58;;;1.10;99.90;;;;;;5115876;28;20480;-64
2022/01/11 01:12:27;;;;;;;60.25;24.45;;;1.00;99.90;;;;;;5116186;28;20040;-64
2022/01/11 01:14:52;;;;;;;51.53;24.70;;;1.00;99.90;;;;;;5114584;28;20057;-65
2022/01/11 01:17:18;;;;;;;34.72;22.38;;;1.00;99.90;;;;;;5115875;28;20406;-64
2022/01/11 01:19:43;;;;;;;53.42;22.25;;;1.00;99.90;;;;;;5114994;28;20085;-64
2022/01/11 01:22:09;;;;;;;31.10;20.42;;;1.10;99.90;;;;;;5115013;28;20494;-64
2022/01/11 01:24:35;;;;;;;36.33;22.23;;;1.10;99.90;;;;;;5116349;28;20465;-64
2022/01/11 01:27:00;;;;;;;29.05;21.08;;;1.10;99.90;;;;;;5115149;28;20043;-64
2022/01/11 01:29:26;;;;;;;31.42;22.02;;;1.10;99.90;;;;;;5114472;28;20119;-64
2022/01/11 01:31:51;;;;;;;36.97;20.38;;;1.20;99.90;;;;;;5114734;28;20043;-64
2022/01/11 01:34:17;;;;;;;30.17;20.85;;;1.20;99.90;;;;;;5116046;28;20138;-64
2022/01/11 01:36:43;;;;;;;28.40;20.17;;;1.20;99.90;;;;;;5114055;28;20043;-65
2022/01/11 01:39:09;;;;;;;28.77;19.92;;;1.20;99.90;;;;;;5116103;28;20384;-64
2022/01/11 01:41:35;;;;;;;39.05;21.60;;;1.30;99.90;;;;;;5115661;28;20047;-64
2022/01/11 01:44:02;;;;;;;28.70;20.42;;;1.20;99.90;;;;;;5114052;28;20044;-64
2022/01/11 01:46:28;;;;;;;33.40;20.40;;;1.20;99.90;;;;;;5113708;28;20494;-64
2022/01/11 01:48:57;;;;;;;36.03;19.73;;;1.20;99.90;;;;;;5114671;28;20032;-64
2022/01/11 01:51:23;;;;;;;39.67;20.20;;;1.20;99.90;;;;;;5114766;28;20058;-64
2022/01/11 01:53:50;;;;;;;36.20;21.75;;;1.20;99.90;;;;;;5115110;28;20036;-64
2022/01/11 01:56:18;;;;;;;27.83;20.50;;;1.20;99.90;;;;;;5114888;28;20039;-64
2022/01/11 01:58:44;;;;;;;30.00;20.92;;;1.20;99.90;;;;;;5115225;28;20031;-64
2022/01/11 02:01:12;;;;;;;31.85;21.20;;;1.20;99.90;;;;;;5114909;28;20503;-64
2022/01/11 02:03:39;;;;;;;48.72;21.10;;;1.20;99.90;;;;;;5115150;28;20055;-64
2022/01/11 02:06:11;;;;;;;32.83;21.75;;;1.20;99.90;;;;;;5114635;28;20043;-64
2022/01/11 02:08:37;;;;;;;36.33;22.48;;;1.20;99.90;;;;;;5115375;28;20046;-64
2022/01/11 02:11:04;;;;;;;32.15;21.42;;;1.20;99.90;;;;;;5115124;28;20071;-64
2022/01/11 02:13:29;;;;;;;65.97;22.55;;;1.20;99.90;;;;;;5114957;28;20035;-64
2022/01/11 02:15:56;;;;;;;78.20;25.65;;;1.10;99.90;;;;;;5114426;28;20046;-64
2022/01/11 02:18:25;;;;;;;33.47;22.58;;;1.10;99.90;;;;;;5114571;28;20043;-64
2022/01/11 02:20:52;;;;;;;58.45;23.30;;;1.10;99.90;;;;;;5115217;28;20044;-64
2022/01/11 02:23:19;;;;;;;69.90;25.00;;;1.10;99.90;;;;;;5113354;28;20383;-66
2022/01/11 02:25:45;;;;;;;47.95;22.58;;;1.10;99.90;;;;;;5114351;28;20050;-64
2022/01/11 02:28:14;;;;;;;67.05;25.02;;;0.90;99.90;;;;;;5114475;28;20031;-64
2022/01/11 02:30:40;;;;;;;57.28;24.55;;;1.00;99.90;;;;;;5114618;28;20088;-64
2022/01/11 02:33:13;;;;;;;37.17;23.15;;;0.90;99.90;;;;;;5115025;28;20118;-64
2022/01/11 02:35:39;;;;;;;76.32;27.65;;;0.90;99.90;;;;;;5113430;28;20180;-66
2022/01/11 02:38:04;;;;;;;43.90;25.05;;;0.90;99.90;;;;;;5113102;28;20131;-64
2022/01/11 02:40:30;;;;;;;34.03;22.88;;;0.80;99.90;;;;;;5114251;28;20032;-64
2022/01/11 02:42:55;;;;;;;107.65;27.92;;;0.90;99.90;;;;;;5114274;28;20202;-64
2022/01/11 02:45:21;;;;;;;67.50;27.08;;;0.80;99.90;;;;;;5114767;28;20039;-64
2022/01/11 02:47:48;;;;;;;96.78;28.52;;;0.90;99.90;;;;;;5113731;28;20039;-65
2022/01/11 02:50:16;;;;;;;60.05;25.40;;;0.80;99.90;;;;;;5114359;28;20085;-64
2022/01/11 02:52:42;;;;;;;64.88;26.35;;;0.90;99.90;;;;;;5114175;28;20046;-64
2022/01/11 02:55:12;;;;;;;65.88;27.50;;;0.80;99.90;;;;;;5113193;28;20040;-64
2022/01/11 02:57:37;;;;;;;95.65;31.20;;;0.80;99.90;;;;;;5112644;28;20040;-64
2022/01/11 03:00:14;;;;;;;42.75;25.40;;;0.80;99.90;;;;;;5114118;28;20044;-64
2022/01/11 03:02:39;;;;;;;104.78;31.85;;;0.80;99.90;;;;;;5112903;28;20126;-64
2022/01/11 03:05:07;;;;;;;72.97;28.25;;;0.80;99.90;;;;;;5114197;28;20455;-64
2022/01/11 03:07:33;;;;;;;75.88;29.17;;;0.70;99.90;;;;;;5113581;28;20437;-64
2022/01/11 03:10:04;;;;;;;78.15;31.23;;;0.70;99.90;;;;;;5112795;28;20127;-64
2022/01/11 03:12:31;;;;;;;47.58;28.13;;;0.80;99.90;;;;;;5113149;28;20058;-64
2022/01/11 03:14:57;;;;;;;77.68;29.02;;;0.80;99.90;;;;;;5113625;28;20390;-64
2022/01/11 03:17:25;;;;;;;73.85;29.67;;;0.80;99.90;;;;;;5113465;28;20039;-64
2022/01/11 03:19:51;;;;;;;72.22;31.42;;;0.80;99.90;;;;;;5112487;28;20440;-64
2022/01/11 03:22:17;;;;;;;51.15;27.88;;;0.80;99.90;;;;;;5113643;28;20048;-64
2022/01/11 03:24:44;;;;;;;49.08;25.45;;;0.80;99.90;;;;;;5113067;28;20384;-64
2022/01/11 03:27:10;;;;;;;51.92;29.02;;;0.80;99.90;;;;;;5113164;28;20039;-64
2022/01/11 03:29:37;;;;;;;119.70;34.83;;;0.90;99.90;;;;;;5113024;28;20096;-64
2022/01/11 03:32:04;;;;;;;44.88;25.23;;;0.90;99.90;;;;;;5112517;28;20075;-64
2022/01/11 03:34:30;;;;;;;65.60;27.83;;;0.90;99.90;;;;;;5112205;28;20054;-64
2022/01/11 03:36:57;;;;;;;57.47;27.20;;;0.90;99.90;;;;;;5112093;28;20093;-65
2022/01/11 03:39:24;;;;;;;41.78;23.90;;;0.90;99.90;;;;;;5112360;28;20039;-64
2022/01/11 03:41:50;;;;;;;61.90;28.35;;;0.90;99.90;;;;;;5113890;28;20044;-64
2022/01/11 03:44:15;;;;;;;71.32;29.17;;;1.00;99.90;;;;;;5114142;28;20131;-64
2022/01/11 03:46:41;;;;;;;51.95;26.33;;;0.90;99.90;;;;;;5113579;28;20043;-64
2022/01/11 03:49:06;;;;;;;59.65;28.48;;;0.90;99.90;;;;;;5113373;28;20083;-64
2022/01/11 03:51:35;;;;;;;43.15;25.30;;;1.00;99.90;;;;;;5115791;28;20055;-64
2022/01/11 03:54:08;;;;;;;42.72;24.85;;;1.00;99.90;;;;;;5117635;28;20048;-64
2022/01/11 03:56:34;;;;;;;51.15;25.70;;;1.00;99.90;;;;;;5117089;27;20518;-64
2022/01/11 03:59:06;;;;;;;43.55;24.65;;;1.00;99.90;;;;;;5117261;28;20122;-64
2022/01/11 04:01:32;;;;;;;45.95;25.70;;;1.00;99.90;;;;;;5116665;28;20047;-64
2022/01/11 04:03:58;;;;;;;67.22;29.02;;;1.10;99.90;;;;;;5117507;28;20032;-64
2022/01/11 04:06:25;;;;;;;45.80;24.17;;;1.10;99.90;;;;;;5117334;28;20421;-64
2022/01/11 04:08:51;;;;;;;48.33;23.33;;;1.10;99.90;;;;;;5116133;28;20035;-64
2022/01/11 04:11:17;;;;;;;40.38;24.17;;;1.10;99.90;;;;;;5116874;28;20407;-64
2022/01/11 04:13:42;;;;;;;43.80;23.48;;;1.10;99.90;;;;;;5117129;28;20043;-64
2022/01/11 04:16:08;;;;;;;39.28;23.33;;;1.10;99.90;;;;;;5116811;28;20035;-64
2022/01/11 04:18:34;;;;;;;47.70;23.45;;;1.10;99.90;;;;;;5117048;28;20040;-64
2022/01/11 04:20:59;;;;;;;38.42;23.33;;;1.00;99.90;;;;;;5116820;28;20118;-64
2022/01/11 04:23:26;;;;;;;42.15;24.05;;;1.10;99.90;;;;;;5116777;28;20055;-64
2022/01/11 04:25:52;;;;;;;40.25;22.35;;;1.00;99.90;;;;;;5115938;28;20391;-64
2022/01/11 04:28:17;;;;;;;54.58;24.75;;;1.00;99.90;;;;;;5116636;28;20032;-65
2022/01/11 04:30:43;;;;;;;49.78;23.50;;;1.00;99.90;;;;;;5117423;28;20039;-65
2022/01/11 04:33:09;;;;;;;45.25;24.23;;;1.10;99.90;;;;;;5115554;28;20071;-65
2022/01/11 04:35:34;;;;;;;35.17;21.02;;;1.10;99.90;;;;;;5116286;28;20604;-64
2022/01/11 04:38:00;;;;;;;38.03;22.60;;;1.00;99.90;;;;;;5115167;28;20043;-65
2022/01/11 04:40:26;;;;;;;39.75;23.70;;;1.00;99.90;;;;;;5117328;28;20040;-65
2022/01/11 04:42:52;;;;;;;34.10;20.55;;;1.00;99.90;;;;;;5116649;28;20038;-64
2022/01/11 04:45:18;;;;;;;42.25;22.67;;;1.10;99.90;;;;;;5115383;28;20044;-65
2022/01/11 04:47:45;;;;;;;34.60;21.33;;;1.00;99.90;;;;;;5116026;28;20038;-65
2022/01/11 04:50:11;;;;;;;36.05;21.92;;;1.10;99.90;;;;;;5117151;28;20038;-65
2022/01/11 04:52:37;;;;;;;40.90;22.35;;;1.10;99.90;;;;;;5116736;28;20582;-65
2022/01/11 04:55:04;;;;;;;34.05;21.40;;;1.00;99.90;;;;;;5116882;28;20067;-64
2022/01/11 04:57:30;;;;;;;36.72;22.17;;;1.10;99.90;;;;;;5116062;28;20114;-65
2022/01/11 04:59:55;;;;;;;34.13;20.42;;;1.00;99.90;;;;;;5116218;28;20538;-65
2022/01/11 05:02:22;;;;;;;35.30;20.95;;;1.10;99.90;;;;;;5115387;28;20048;-64
2022/01/11 05:04:48;;;;;;;31.95;19.92;;;1.10;99.90;;;;;;5116528;28;20361;-64
2022/01/11 05:07:13;;;;;;;39.10;22.13;;;1.10;99.90;;;;;;5114336;28;20085;-65
2022/01/11 05:09:39;;;;;;;39.00;20.80;;;1.10;99.90;;;;;;5115044;28;20043;-65
2022/01/11 05:12:05;;;;;;;46.92;24.25;;;1.10;99.90;;;;;;5116004;28;20071;-65
2022/01/11 05:14:31;;;;;;;42.03;21.95;;;1.10;99.90;;;;;;5116006;28;20096;-65
2022/01/11 05:16:56;;;;;;;36.17;20.23;;;1.10;99.90;;;;;;5115891;28;20127;-64
2022/01/11 05:19:22;;;;;;;45.47;24.15;;;1.10;99.90;;;;;;5116275;28;20044;-65
2022/01/11 05:21:47;;;;;;;36.42;20.75;;;1.10;99.90;;;;;;5116310;28;20388;-65
2022/01/11 05:24:13;;;;;;;44.45;23.25;;;1.10;99.90;;;;;;5115749;28;20055;-65
2022/01/11 05:26:39;;;;;;;54.33;23.40;;;1.10;99.90;;;;;;5114045;28;20089;-65
2022/01/11 05:29:05;;;;;;;41.53;22.05;;;1.00;99.90;;;;;;5115567;28;20213;-65
2022/01/11 05:31:33;;;;;;;42.17;23.17;;;1.10;99.90;;;;;;5115625;28;20493;-65
2022/01/11 05:33:59;;;;;;;49.38;23.73;;;1.00;99.90;;;;;;5115712;27;20065;-65
2022/01/11 05:36:24;;;;;;;50.88;23.85;;;1.00;99.90;;;;;;5114123;28;20047;-64
2022/01/11 05:38:50;;;;;;;45.70;22.67;;;1.00;99.90;;;;;;5115397;28;20051;-65
2022/01/11 05:41:16;;;;;;;41.67;23.42;;;1.00;99.90;;;;;;5115428;28;20067;-65
2022/01/11 05:43:41;;;;;;;52.83;24.70;;;1.00;99.90;;;;;;5115488;28;20036;-65
2022/01/11 05:46:07;;;;;;;57.42;25.65;;;1.00;99.90;;;;;;5113911;28;20066;-65
2022/01/11 05:48:32;;;;;;;51.05;24.90;;;0.90;99.90;;;;;;5115663;28;20084;-65
2022/01/11 05:51:01;;;;;;;44.72;24.35;;;1.00;99.90;;;;;;5115110;28;20051;-64
2022/01/11 05:53:27;;;;;;;55.05;25.88;;;1.00;99.90;;;;;;5115263;28;20115;-65
2022/01/11 05:55:53;;;;;;;49.88;26.50;;;1.00;99.90;;;;;;5114975;28;20578;-64
2022/01/11 05:58:18;;;;;;;44.38;24.20;;;1.00;99.90;;;;;;5114160;28;20070;-64
2022/01/11 06:00:44;;;;;;;48.42;25.40;;;1.00;99.90;;;;;;5115444;28;20502;-64
2022/01/11 06:03:09;;;;;;;65.05;28.25;;;1.10;99.90;;;;;;5114247;28;20529;-65
2022/01/11 06:05:38;;;;;;;51.17;25.08;;;1.10;99.90;;;;;;5115213;28;20028;-64
2022/01/11 06:08:05;;;;;;;52.08;27.88;;;1.10;99.90;;;;;;5115089;28;20349;-64
2022/01/11 06:10:31;;;;;;;50.50;26.05;;;1.10;99.90;;;;;;5113662;28;20047;-64
2022/01/11 06:12:57;;;;;;;54.00;25.83;;;1.10;99.90;;;;;;5114792;28;20395;-64
2022/01/11 06:15:22;;;;;;;51.85;27.65;;;1.10;99.90;;;;;;5114911;28;20429;-64
2022/01/11 06:17:48;;;;;;;50.13;25.13;;;1.10;99.90;;;;;;5114409;28;20035;-64
2022/01/11 06:20:14;;;;;;;61.03;27.00;;;1.00;99.90;;;;;;5114789;28;20031;-64
2022/01/11 06:22:39;;;;;;;62.88;28.80;;;1.10;99.90;;;;;;5114644;28;20123;-65
2022/01/11 06:25:06;;;;;;;56.17;26.90;;;1.10;99.90;;;;;;5114472;28;20092;-65
2022/01/11 06:27:32;;;;;;;66.38;30.00;;;1.10;99.90;;;;;;5112942;28;20043;-65
2022/01/11 06:29:58;;;;;;;62.65;29.77;;;1.10;99.90;;;;;;5114657;28;20082;-65
2022/01/11 06:32:24;;;;;;;68.70;30.17;;;1.10;99.90;;;;;;5114789;28;20040;-65
2022/01/11 06:34:52;;;;;;;56.75;29.08;;;1.10;99.90;;;;;;5114741;28;20039;-64
2022/01/11 06:37:17;;;;;;;57.13;27.50;;;1.10;99.90;;;;;;5113933;28;20039;-65
2022/01/11 06:39:43;;;;;;;65.30;30.27;;;1.10;99.90;;;;;;5114576;28;20456;-64
2022/01/11 06:42:09;;;;;;;66.78;30.92;;;1.10;99.90;;;;;;5114304;28;20096;-65
2022/01/11 06:44:34;;;;;;;59.65;27.27;;;1.00;99.90;;;;;;5112881;28;20040;-65
2022/01/11 06:47:00;;;;;;;54.22;28.75;;;1.10;99.90;;;;;;5112445;28;20122;-65
2022/01/11 06:49:25;;;;;;;75.45;32.25;;;1.10;99.90;;;;;;5114884;28;20038;-65
2022/01/11 06:51:51;;;;;;;66.55;29.20;;;1.10;99.90;;;;;;5114958;28;20402;-65
2022/01/11 06:54:17;;;;;;;70.80;30.13;;;1.10;99.90;;;;;;5112805;28;20047;-65
2022/01/11 06:56:43;;;;;;;72.18;32.55;;;1.00;99.90;;;;;;5114173;28;20076;-65
2022/01/11 06:59:08;;;;;;;61.03;28.40;;;1.00;99.90;;;;;;5113995;28;20530;-65
2022/01/11 07:01:34;;;;;;;84.13;34.95;;;1.00;99.90;;;;;;5113954;28;20047;-65
2022/01/11 07:04:00;;;;;;;75.70;32.45;;;0.90;99.90;;;;;;5114533;28;20039;-65
2022/01/11 07:06:26;;;;;;;66.82;33.42;;;0.90;99.90;;;;;;5114286;28;20357;-65
2022/01/11 07:08:51;;;;;;;67.65;35.10;;;1.00;99.90;;;;;;5114290;28;20050;-65
2022/01/11 07:11:18;;;;;;;74.07;33.08;;;1.00;99.90;;;;;;5114175;28;20044;-65
2022/01/11 07:13:44;;;;;;;73.55;33.42;;;0.90;99.90;;;;;;5114172;28;20085;-65
2022/01/11 07:16:09;;;;;;;82.38;35.55;;;0.90;99.90;;;;;;5113797;28;20427;-65
2022/01/11 07:18:35;;;;;;;83.30;36.20;;;1.00;99.90;;;;;;5113778;28;20039;-65
2022/01/11 07:21:01;;;;;;;93.70;37.47;;;1.00;99.90;;;;;;5113581;28;20417;-65
2022/01/11 07:23:26;;;;;;;67.95;33.28;;;0.90;99.90;;;;;;5114183;28;20032;-65
2022/01/11 07:25:52;;;;;;;75.68;33.40;;;1.00;99.90;;;;;;5113787;28;20045;-65
2022/01/11 07:28:18;;;;;;;71.90;34.65;;;1.00;99.90;;;;;;5117736;28;20095;-65
2022/01/11 07:30:43;;;;;;;80.10;37.22;;;1.00;99.90;;;;;;5117121;28;20044;-65
2022/01/11 07:33:09;;;;;;;72.13;35.42;;;1.00;99.90;;;;;;5118558;28;20106;-65
2022/01/11 07:35:35;;;;;;;77.78;34.85;;;1.00;99.90;;;;;;5117700;28;20039;-65
2022/01/11 07:38:00;;;;;;;66.03;32.42;;;1.00;99.90;;;;;;5117689;28;20040;-65
2022/01/11 07:40:26;;;;;;;70.65;32.13;;;1.00;99.90;;;;;;5116787;28;20047;-65
2022/01/11 07:42:52;;;;;;;77.93;33.53;;;1.10;99.90;;;;;;5118215;28;20100;-66
2022/01/11 07:45:17;;;;;;;80.40;35.00;;;1.20;99.90;;;;;;5118228;28;20089;-67
2022/01/11 07:47:43;;;;;;;68.93;34.78;;;1.20;99.90;;;;;;5117212;27;20038;-65
2022/01/11 07:50:10;;;;;;;74.20;34.42;;;1.20;99.90;;;;;;5117810;28;20080;-66
2022/01/11 07:52:36;;;;;;;85.30;37.90;;;1.20;99.90;;;;;;5117644;28;20595;-66
2022/01/11 07:55:02;;;;;;;76.68;35.20;;;1.20;99.90;;;;;;5117611;28;20064;-66
2022/01/11 07:57:28;;;;;;;70.25;33.03;;;1.30;99.90;;;;;;5116836;28;20035;-64
2022/01/11 07:59:54;;;;;;;65.07;32.08;;;1.30;99.90;;;;;;5117157;28;20047;-66
2022/01/11 08:02:22;;;;;;;72.07;33.85;;;1.30;99.90;;;;;;5117876;28;20040;-66
2022/01/11 08:04:48;;;;;;;67.55;32.58;;;1.30;99.90;;;;;;5117165;28;20031;-64
2022/01/11 08:07:14;;;;;;;71.35;33.63;;;1.30;99.90;;;;;;5117158;28;20527;-64
2022/01/11 08:09:39;;;;;;;71.78;34.22;;;1.40;99.90;;;;;;5117569;28;20059;-64
2022/01/11 08:12:05;;;;;;;76.32;37.95;;;1.40;99.90;;;;;;5115719;28;20044;-65
2022/01/11 08:14:31;;;;;;;65.38;31.55;;;1.40;99.90;;;;;;5117090;27;20043;-65
2022/01/11 08:16:57;;;;;;;67.15;31.23;;;1.40;99.90;;;;;;5115558;28;20053;-65
2022/01/11 08:19:25;;;;;;;70.45;32.75;;;1.40;99.90;;;;;;5117165;28;20039;-66
2022/01/11 08:21:55;;;;;;;65.78;30.42;;;1.50;99.90;;;;;;5117187;28;20089;-65
2022/01/11 08:24:22;;;;;;;66.82;31.98;;;1.50;99.90;;;;;;5114053;28;20432;-65
2022/01/11 08:26:49;;;;;;;76.95;35.30;;;1.60;99.90;;;;;;5116673;28;20031;-65
2022/01/11 08:29:15;;;;;;;70.97;31.73;;;1.50;99.90;;;;;;5117091;28;20042;-65
2022/01/11 08:31:41;;;;;;;69.72;33.00;;;1.60;99.90;;;;;;5116674;28;20071;-65
2022/01/11 08:34:11;;;;;;;64.63;33.00;;;1.60;99.90;;;;;;5116985;28;20074;-65
2022/01/11 08:36:38;;;;;;;64.68;30.70;;;1.60;99.90;;;;;;5116240;28;20040;-65
2022/01/11 08:39:04;;;;;;;65.40;31.00;;;1.70;99.90;;;;;;5117139;28;20352;-65
2022/01/11 08:41:29;;;;;;;67.15;32.65;;;1.70;99.90;;;;;;5115242;28;20047;-65
2022/01/11 08:43:55;;;;;;;71.10;30.65;;;1.70;99.90;;;;;;5117008;28;20078;-65
2022/01/11 08:46:21;;;;;;;65.00;31.05;;;1.80;99.90;;;;;;5116585;28;20035;-66
2022/01/11 08:48:47;;;;;;;58.97;30.85;;;1.80;99.90;;;;;;5114927;28;20043;-65
2022/01/11 08:51:12;;;;;;;66.32;29.75;;;1.80;99.90;;;;;;5115570;28;20137;-66
2022/01/11 08:53:38;;;;;;;58.10;30.20;;;1.80;99.90;;;;;;5117561;27;20340;-66
2022/01/11 08:56:05;;;;;;;61.70;29.95;;;1.80;99.90;;;;;;5117668;28;20027;-66
2022/01/11 08:58:31;;;;;;;58.88;30.08;;;1.80;99.90;;;;;;5116127;28;20078;-65
2022/01/11 09:00:56;;;;;;;56.30;27.83;;;1.80;99.90;;;;;;5116210;28;20075;-66
2022/01/11 09:03:23;;;;;;;55.53;30.27;;;1.80;99.90;;;;;;5116634;28;20070;-66
2022/01/11 09:05:50;;;;;;;57.75;27.17;;;1.90;99.90;;;;;;5115490;28;20441;-66
2022/01/11 09:08:16;;;;;;;58.35;27.88;;;1.80;99.90;;;;;;5117344;28;20036;-65
2022/01/11 09:10:42;;;;;;;53.03;27.10;;;1.90;99.90;;;;;;5117292;28;20053;-67
2022/01/11 09:13:08;;;;;;;52.92;24.35;;;1.90;99.90;;;;;;5116187;28;20039;-66
2022/01/11 09:15:34;;;;;;;56.05;27.48;;;1.90;99.90;;;;;;5116694;28;20067;-66
2022/01/11 09:18:00;;;;;;;54.85;27.65;;;1.90;99.90;;;;;;5118234;28;20032;-66
2022/01/11 09:20:26;;;;;;;48.70;24.95;;;1.80;99.90;;;;;;5117634;28;20498;-66
2022/01/11 09:22:51;;;;;;;52.78;24.40;;;1.90;99.90;;;;;;5119275;28;20044;-66
2022/01/11 09:25:17;;;;;;;47.92;24.55;;;1.90;99.90;;;;;;5117022;28;20046;-66
2022/01/11 09:27:43;;;;;;;48.78;23.30;;;1.90;99.90;;;;;;5115715;28;20046;-65
2022/01/11 09:30:11;;;;;;;41.45;22.13;;;1.90;99.90;;;;;;5115821;28;20054;-66
2022/01/11 09:32:38;;;;;;;41.55;22.60;;;1.90;99.90;;;;;;5115913;28;20481;-66
2022/01/11 09:35:06;;;;;;;48.15;23.58;;;1.90;99.90;;;;;;5115601;28;20471;-66
2022/01/11 09:37:32;;;;;;;41.05;21.95;;;1.90;99.90;;;;;;5115434;28;20046;-66
2022/01/11 09:39:58;;;;;;;35.58;19.70;;;1.90;99.90;;;;;;5114772;28;20410;-66
2022/01/11 09:42:24;;;;;;;41.67;20.60;;;1.90;99.90;;;;;;5115040;28;20065;-65
2022/01/11 09:44:50;;;;;;;37.50;20.90;;;1.90;99.90;;;;;;5115884;28;20045;-66
2022/01/11 09:47:15;;;;;;;42.03;20.00;;;2.00;99.90;;;;;;5115265;28;20114;-66
2022/01/11 09:49:42;;;;;;;37.42;20.70;;;1.90;99.90;;;;;;5115347;28;20114;-66
2022/01/11 09:52:09;;;;;;;37.15;19.98;;;1.90;99.90;;;;;;5115899;28;20456;-66
2022/01/11 09:54:37;;;;;;;40.47;20.33;;;1.90;99.90;;;;;;5115517;28;20051;-65
2022/01/11 09:57:03;;;;;;;35.65;19.95;;;1.90;99.90;;;;;;5114062;28;20047;-64
2022/01/11 09:59:30;;;;;;;34.38;19.20;;;1.90;99.90;;;;;;5104337;28;20043;-64
2022/01/11 10:01:57;;;;;;;31.55;18.38;;;1.90;99.90;;;;;;5102351;28;20481;-64
2022/01/11 10:04:32;;;;;;;30.75;18.20;;;1.90;99.90;;;;;;5095003;28;20040;-66
2022/01/11 10:07:00;;;;;;;34.47;17.98;;;1.90;99.90;;;;;;5093582;28;20055;-66
2022/01/11 10:09:29;;;;;;;32.35;16.10;;;2.00;99.90;;;;;;5094732;28;20400;-65
2022/01/11 10:12:00;;;;;;;32.10;18.73;;;1.90;99.90;;;;;;5094640;28;20071;-65
2022/01/11 10:14:33;;;;;;;42.20;19.13;;;2.00;99.90;;;;;;5093377;28;20044;-66
2022/01/11 10:17:18;;;;;;;31.90;18.98;;;2.00;99.90;;;;;;5094132;28;20116;-65
2022/01/11 10:19:59;;;;;;;34.05;16.55;;;2.00;99.90;;;;;;5094472;28;20051;-66
2022/01/11 10:22:25;;;;;;;28.30;15.90;;;2.00;99.90;;;;;;5095107;28;20399;-66
2022/01/11 10:24:54;;;;;;;29.42;16.23;;;2.00;99.90;;;;;;5094616;28;20042;-66
2022/01/11 10:27:21;;;;;;;30.02;17.08;;;2.10;99.90;;;;;;5094314;28;20040;-65
2022/01/11 10:29:49;;;;;;;28.00;16.17;;;2.10;99.90;;;;;;5093216;28;20044;-65
2022/01/11 10:32:30;;;;;;;26.70;17.30;;;2.10;99.90;;;;;;5095098;28;20050;-66
2022/01/11 10:35:00;;;;;;;27.55;16.02;;;2.10;99.90;;;;;;5096506;28;20046;-65
2022/01/11 10:37:53;;;;;;;28.13;16.98;;;2.10;99.90;;;;;;5093398;28;20044;-66
2022/01/11 10:40:24;;;;;;;27.42;15.43;;;2.10;99.90;;;;;;5094471;28;20040;-66
2022/01/11 10:42:56;;;;;;;25.75;15.95;;;2.10;99.90;;;;;;5093094;28;20485;-65
2022/01/11 10:45:27;;;;;;;30.13;15.60;;;2.10;99.90;;;;;;5093753;28;20524;-66
2022/01/11 10:47:58;;;;;;;28.75;16.77;;;2.20;99.90;;;;;;5093665;28;20040;-66
2022/01/11 10:50:34;;;;;;;26.45;17.50;;;2.10;99.90;;;;;;5094449;28;20192;-66
2022/01/11 10:53:02;;;;;;;25.70;15.73;;;2.10;99.90;;;;;;5094471;28;20131;-66
2022/01/11 10:55:30;;;;;;;26.60;16.27;;;2.10;99.90;;;;;;5096188;28;20064;-65
2022/01/11 10:58:14;;;;;;;28.75;16.23;;;2.20;99.90;;;;;;5095890;28;20077;-65
2022/01/11 11:00:40;;;;;;;;;;;2.20;99.90;;;;;;5100149;28;20047;-65
2022/01/11 11:03:13;;;;;;;26.85;15.50;;;2.10;99.90;;;;;;5104136;28;20286;-66
2022/01/11 11:05:40;;;;;;;28.73;16.63;;;2.10;99.90;;;;;;5101798;28;20067;-66
2022/01/11 11:08:17;;;;;;;26.50;15.90;;;2.10;99.90;;;;;;5093519;28;20048;-66
2022/01/11 11:10:58;;;;;;;26.17;15.63;;;2.20;99.90;;;;;;5097631;28;20048;-66
2022/01/11 11:13:33;;;;;;;30.33;16.25;;;2.10;99.90;;;;;;5098885;28;20035;-65
2022/01/11 11:16:00;;;;;;;24.50;15.73;;;2.20;99.90;;;;;;5103114;28;20032;-66
2022/01/11 11:18:39;;;;;;;24.45;15.90;;;2.20;99.90;;;;;;5101622;28;20073;-66
2022/01/11 11:21:21;;;;;;;30.40;15.73;;;2.30;99.90;;;;;;5101017;28;20119;-65
2022/01/11 11:23:58;;;;;;;27.48;15.68;;;2.40;99.90;;;;;;5103730;28;20040;-65
2022/01/11 11:26:26;;;;;;;34.38;18.15;;;2.40;99.90;;;;;;5101119;28;20024;-66
2022/01/11 11:28:52;;;;;;;26.33;15.18;;;2.50;99.90;;;;;;5101463;28;20097;-65
2022/01/11 11:31:18;;;;;;;28.35;15.80;;;2.50;99.90;;;;;;5103873;28;20483;-66
2022/01/11 11:33:44;;;;;;;30.17;16.95;;;2.60;99.90;;;;;;5095294;28;20089;-66
2022/01/11 11:36:12;;;;;;;29.83;15.88;;;2.60;99.90;;;;;;5091657;28;20040;-65
2022/01/11 11:38:43;;;;;;;27.35;15.80;;;2.70;99.90;;;;;;5091896;28;20070;-65
2022/01/11 11:41:10;;;;;;;30.08;16.52;;;2.70;99.90;;;;;;5093450;28;20097;-65
2022/01/11 11:43:36;;;;;;;34.78;18.42;;;2.80;99.90;;;;;;5093895;28;20071;-67
2022/01/11 11:46:02;;;;;;;27.90;15.38;;;2.80;99.90;;;;;;5093359;28;20040;-65
2022/01/11 11:48:28;;;;;;;31.40;17.73;;;2.80;99.90;;;;;;5094109;28;20028;-65
2022/01/11 11:51:02;;;;;;;33.25;17.00;;;2.90;99.90;;;;;;5094133;28;20048;-66
2022/01/11 11:53:30;;;;;;;28.25;15.52;;;3.00;99.90;;;;;;5095365;28;20469;-66
2022/01/11 11:56:18;;;;;;;35.60;17.77;;;3.00;99.90;;;;;;5093744;28;20075;-67
2022/01/11 11:58:46;;;;;;;24.33;15.00;;;3.00;99.90;;;;;;5094514;28;20036;-66
2022/01/11 12:01:41;;;;;;;31.13;18.15;;;3.10;99.90;;;;;;5095251;28;20040;-66
2022/01/11 12:04:08;;;;;;;30.05;15.27;;;3.10;99.90;;;;;;5093837;28;20047;-65
2022/01/11 12:06:33;;;;;;;26.70;14.90;;;3.20;99.90;;;;;;5092704;28;20495;-66
2022/01/11 12:09:01;;;;;;;30.27;16.73;;;3.20;99.90;;;;;;5091829;28;20127;-65
2022/01/11 12:11:35;;;;;;;28.92;16.70;;;3.30;99.90;;;;;;5094503;28;20044;-66
2022/01/11 12:14:00;;;;;;;32.75;18.02;;;3.30;99.90;;;;;;5097420;28;20048;-66
2022/01/11 12:16:26;;;;;;;29.98;15.90;;;3.40;99.90;;;;;;5097110;28;20590;-66
2022/01/11 12:19:04;;;;;;;31.02;17.48;;;3.40;99.90;;;;;;5096036;28;20040;-66
2022/01/11 12:21:43;;;;;;;30.70;16.98;;;3.50;99.90;;;;;;5096981;28;20055;-66
2022/01/11 12:24:09;;;;;;;31.73;15.77;;;3.50;99.90;;;;;;5097101;28;20040;-65
2022/01/11 12:26:37;;;;;;;29.05;15.60;;;3.60;99.90;;;;;;5095981;28;20139;-66
2022/01/11 12:29:02;;;;;;;31.88;16.40;;;3.60;99.90;;;;;;5095409;28;20048;-66
2022/01/11 12:31:32;;;;;;;32.47;16.48;;;3.70;99.90;;;;;;5115031;28;20051;-65
2022/01/11 12:33:58;;;;;;;32.88;18.13;;;3.70;99.90;;;;;;5116805;28;20353;-66
2022/01/11 12:36:53;;;;;;;35.13;19.58;;;3.70;99.90;;;;;;5116488;28;20422;-65
2022/01/11 12:39:19;;;;;;;31.00;16.48;;;3.70;99.90;;;;;;5117137;28;20043;-66
2022/01/11 12:41:45;;;;;;;27.77;15.68;;;3.70;99.90;;;;;;5116409;28;20437;-66
2022/01/11 12:45:35;;;;;;;24.20;15.38;;;3.70;99.90;;;;;;5116686;28;20040;-66